Time;durP1;ratioP1;P1;durP2;ratioP2;P2;SDS_P1;SDS_P2;PMS_P1;PMS_P2;Temp;Humidity;BMP_temperature;BMP_pressure;BME280_temperature;BME280_humidity;BME280_pressure;Samples;Min_cycle;Max_cycle;Signal;HPM_P1;HPM_P2
2023/10/19 00:01:56;;;;;;;5.75;2.78;;;15.00;99.90;;;;;;4986242;28;88895;-74
2023/10/19 00:04:22;;;;;;;4.60;2.78;;;15.00;99.90;;;;;;4985002;28;88334;-74
2023/10/19 00:06:48;;;;;;;3.40;2.70;;;15.00;99.90;;;;;;4987279;28;87777;-71
2023/10/19 00:09:15;;;;;;;3.25;2.50;;;15.10;99.90;;;;;;4966859;28;91174;-72
2023/10/19 00:11:42;;;;;;;3.53;1.92;;;15.10;99.90;;;;;;4964220;28;91093;-74
2023/10/19 00:14:29;;;;;;;4.05;2.42;;;15.20;99.90;;;;;;4983707;28;88157;-77
2023/10/19 00:16:59;;;;;;;3.63;2.63;;;15.20;99.90;;;;;;4984078;28;88358;-77
2023/10/19 00:19:27;;;;;;;3.30;2.30;;;15.20;99.90;;;;;;4983796;28;88372;-70
2023/10/19 00:22:08;;;;;;;4.38;2.30;;;15.20;99.90;;;;;;4981138;28;90811;-72
2023/10/19 00:24:34;;;;;;;4.05;1.80;;;15.20;99.90;;;;;;4983014;28;89493;-72
2023/10/19 00:27:06;;;;;;;5.35;1.73;;;15.30;99.90;;;;;;4982347;28;90021;-70
2023/10/19 00:29:33;;;;;;;5.15;1.48;;;15.40;99.90;;;;;;4965074;28;92194;-72
2023/10/19 00:32:00;;;;;;;2.60;1.35;;;15.40;99.90;;;;;;4982047;28;88173;-72
2023/10/19 00:34:28;;;;;;;3.10;1.13;;;15.40;99.90;;;;;;4982355;28;88099;-75
2023/10/19 00:36:55;;;;;;;6.95;0.90;;;15.50;99.90;;;;;;4983630;28;87920;-71
2023/10/19 00:39:22;;;;;;;2.38;1.17;;;15.60;99.90;;;;;;4966305;28;91557;-73
2023/10/19 00:41:48;;;;;;;3.67;0.70;;;15.70;99.90;;;;;;4981438;28;90467;-71
2023/10/19 00:44:34;;;;;;;3.00;0.70;;;15.70;99.90;;;;;;4965751;28;88858;-70
2023/10/19 00:47:07;;;;;;;4.00;0.40;;;15.80;99.90;;;;;;4983140;28;88216;-74
2023/10/19 00:49:33;;;;;;;3.45;0.60;;;15.90;99.90;;;;;;4982648;28;88928;-71
2023/10/19 00:52:10;;;;;;;5.63;0.57;;;15.90;99.90;;;;;;4980507;28;91765;-74
2023/10/19 00:54:58;;;;;;;3.58;0.57;;;15.90;99.90;;;;;;4983845;28;87508;-73
2023/10/19 00:57:34;;;;;;;3.90;0.60;;;16.00;99.90;;;;;;4985058;28;87210;-75
2023/10/19 01:00:20;;;;;;;3.00;0.50;;;16.00;99.90;;;;;;4964298;28;95562;-70
2023/10/19 01:02:46;;;;;;;4.07;0.65;;;16.00;99.90;;;;;;4982153;28;88546;-70
2023/10/19 01:05:20;;;;;;;2.40;0.40;;;16.10;99.90;;;;;;4983717;28;87980;-71
2023/10/19 01:07:53;;;;;;;3.00;0.52;;;16.10;99.90;;;;;;4983565;28;91827;-72
2023/10/19 01:10:23;;;;;;;4.63;0.68;;;16.10;99.90;;;;;;4963249;28;90249;-73
2023/10/19 01:12:50;;;;;;;3.45;0.43;;;16.10;99.90;;;;;;4984902;28;89288;-73
2023/10/19 01:15:29;;;;;;;4.05;0.50;;;16.20;99.90;;;;;;4967976;28;88782;-75
2023/10/19 01:17:56;;;;;;;4.15;0.40;;;16.20;99.90;;;;;;4987114;28;91428;-70
2023/10/19 01:25:44;;;;;;;5.43;0.52;;;16.20;99.90;;;;;;4984638;28;87488;-72
2023/10/19 01:28:13;;;;;;;3.15;0.52;;;16.10;99.90;;;;;;4983774;28;89395;-72
2023/10/19 01:30:39;;;;;;;5.55;0.68;;;16.10;99.90;;;;;;4984958;28;88795;-77
2023/10/19 01:33:12;;;;;;;4.90;0.40;;;16.10;99.90;;;;;;4984417;28;91629;-71
2023/10/19 01:38:30;;;;;;;3.88;0.50;;;16.10;99.90;;;;;;4985852;28;87528;-71
2023/10/19 01:41:00;;;;;;;2.15;0.50;;;16.10;99.90;;;;;;4980126;28;92393;-75
2023/10/19 01:43:30;;;;;;;2.85;0.38;;;16.10;99.90;;;;;;4984825;28;88330;-70
2023/10/19 01:45:56;;;;;;;3.58;0.55;;;16.10;99.90;;;;;;4984823;28;88021;-74
2023/10/19 01:48:33;;;;;;;8.63;0.70;;;16.10;99.90;;;;;;4973279;28;91426;-72
2023/10/19 01:51:06;;;;;;;4.95;0.47;;;16.10;99.90;;;;;;4984291;28;93227;-72
2023/10/19 01:53:33;;;;;;;8.02;0.50;;;16.00;99.90;;;;;;4967269;28;90210;-73
2023/10/19 01:55:58;;;;;;;3.42;0.40;;;16.10;99.90;;;;;;4960317;28;87832;-72
2023/10/19 01:58:25;;;;;;;4.07;0.80;;;16.00;99.90;;;;;;4966743;28;90478;-74
2023/10/19 02:00:55;;;;;;;5.80;0.88;;;16.00;99.90;;;;;;4981997;28;91576;-74
2023/10/19 02:03:25;;;;;;;5.50;0.68;;;16.00;99.90;;;;;;4984906;28;87697;-74
2023/10/19 02:06:06;;;;;;;4.55;0.47;;;16.00;99.90;;;;;;4984283;28;88512;-72
2023/10/19 02:08:32;;;;;;;3.45;0.38;;;16.00;99.90;;;;;;4984025;28;87432;-73
2023/10/19 02:11:02;;;;;;;2.20;0.45;;;16.00;99.90;;;;;;4984689;28;88105;-73
2023/10/19 02:13:27;;;;;;;2.13;0.40;;;16.00;99.90;;;;;;4984369;28;87951;-72
2023/10/19 02:15:53;;;;;;;3.17;0.40;;;16.00;99.90;;;;;;4965855;28;87551;-75
2023/10/19 02:18:19;;;;;;;8.15;0.77;;;16.00;99.90;;;;;;4984611;28;88192;-71
2023/10/19 02:20:48;;;;;;;4.32;0.40;;;16.00;99.90;;;;;;4965574;28;91517;-70
2023/10/19 02:23:17;;;;;;;4.28;0.50;;;16.00;99.90;;;;;;4982797;28;88807;-74
2023/10/19 02:25:43;;;;;;;3.20;0.50;;;16.00;99.90;;;;;;4982833;28;88115;-74
2023/10/19 02:28:09;;;;;;;3.13;0.40;;;16.00;99.90;;;;;;4982360;28;87925;-71
2023/10/19 02:30:35;;;;;;;4.90;0.43;;;15.90;99.90;;;;;;4981780;28;89543;-72
2023/10/19 02:33:03;;;;;;;4.60;0.60;;;15.90;99.90;;;;;;4964039;28;93216;-70
2023/10/19 02:35:29;;;;;;;4.55;0.45;;;15.90;99.90;;;;;;4980849;28;87849;-72
2023/10/19 02:37:54;;;;;;;9.00;0.55;;;15.90;99.90;;;;;;4981092;28;90893;-71
2023/10/19 02:40:22;;;;;;;2.83;0.45;;;15.90;99.90;;;;;;4980218;28;91885;-72
2023/10/19 02:42:50;;;;;;;4.35;0.40;;;15.80;99.90;;;;;;4983108;28;88005;-70
2023/10/19 02:45:16;;;;;;;5.45;0.70;;;15.80;99.90;;;;;;4982828;28;87794;-76
2023/10/19 02:47:44;;;;;;;2.38;0.40;;;15.80;99.90;;;;;;4981824;28;90347;-71
2023/10/19 02:50:22;;;;;;;3.92;0.98;;;15.80;99.90;;;;;;4982509;28;88135;-71
2023/10/19 02:52:48;;;;;;;2.78;0.50;;;15.80;99.90;;;;;;4982449;28;88484;-70
2023/10/19 02:55:17;;;;;;;2.47;0.40;;;15.70;99.90;;;;;;4983077;28;88819;-72
2023/10/19 02:57:46;;;;;;;4.85;0.65;;;15.70;99.90;;;;;;4964724;28;90675;-73
2023/10/19 03:00:19;;;;;;;4.00;0.60;;;15.70;99.90;;;;;;4965109;28;91102;-71
2023/10/19 03:02:45;;;;;;;4.75;0.47;;;15.70;99.90;;;;;;4982522;28;87799;-71
2023/10/19 03:05:14;;;;;;;3.42;0.60;;;15.70;99.90;;;;;;4982584;28;87545;-72
2023/10/19 03:07:44;;;;;;;3.13;0.43;;;15.70;99.90;;;;;;4981824;28;90492;-73
2023/10/19 03:10:23;;;;;;;4.50;0.60;;;15.70;99.90;;;;;;4982347;28;88092;-70
2023/10/19 03:12:50;;;;;;;4.60;0.77;;;15.70;99.90;;;;;;4980859;28;91875;-71
2023/10/19 03:15:19;;;;;;;8.23;0.90;;;15.70;99.90;;;;;;4983431;28;87442;-72
2023/10/19 03:17:45;;;;;;;6.50;0.75;;;15.60;99.90;;;;;;4978391;28;90128;-77
2023/10/19 03:20:11;;;;;;;4.55;0.43;;;15.60;99.90;;;;;;4981163;28;88535;-75
2023/10/19 03:22:38;;;;;;;7.95;0.68;;;15.50;99.90;;;;;;4979774;28;91578;-72
2023/10/19 03:27:50;;;;;;;6.18;1.00;;;15.40;99.90;;;;;;4981586;28;87907;-73
2023/10/19 03:30:18;;;;;;;5.55;0.80;;;15.40;99.90;;;;;;4982348;28;87925;-70
2023/10/19 03:32:44;;;;;;;4.55;0.70;;;15.30;99.90;;;;;;4981312;28;89336;-75
2023/10/19 03:35:15;;;;;;;6.40;0.50;;;15.30;99.90;;;;;;4981622;28;88268;-73
2023/10/19 03:37:41;;;;;;;7.80;0.60;;;15.20;99.90;;;;;;4981901;28;88225;-72
2023/10/19 03:40:15;;;;;;;5.28;0.60;;;15.20;99.90;;;;;;4979708;28;92704;-71
2023/10/19 03:42:40;;;;;;;;;;;15.10;99.90;;;;;;4981482;28;88327;-73
2023/10/19 03:45:13;;;;;;;4.80;0.60;;;15.00;99.90;;;;;;4983048;28;88364;-71
2023/10/19 03:47:41;;;;;;;8.40;0.80;;;15.00;99.90;;;;;;4981409;28;87919;-75
2023/10/19 03:50:13;;;;;;;4.93;0.55;;;15.00;99.90;;;;;;4963982;28;92036;-70
2023/10/19 03:52:42;;;;;;;5.50;0.73;;;14.90;99.90;;;;;;4978385;28;90133;-72
2023/10/19 03:55:11;;;;;;;6.00;0.80;;;14.90;99.90;;;;;;4963310;28;87224;-72
2023/10/19 03:57:41;;;;;;;7.13;0.60;;;14.90;99.90;;;;;;4981385;28;87684;-73
2023/10/19 04:00:12;;;;;;;7.28;0.95;;;14.90;99.90;;;;;;4980884;28;88176;-73
2023/10/19 04:02:42;;;;;;;4.03;0.80;;;14.90;99.90;;;;;;4981955;28;88651;-73
2023/10/19 04:05:10;;;;;;;9.02;0.80;;;14.90;99.90;;;;;;4970075;28;88029;-70
2023/10/19 04:07:36;;;;;;;5.50;0.88;;;14.90;99.90;;;;;;4963322;28;89934;-76
2023/10/19 04:12:38;;;;;;;4.78;0.80;;;14.90;99.90;;;;;;4980507;28;89947;-71
2023/10/19 04:15:16;;;;;;;6.95;1.10;;;14.90;99.90;;;;;;4983279;28;88036;-72
2023/10/19 04:17:52;;;;;;;2.88;0.73;;;14.90;99.90;;;;;;4981374;28;88462;-76
2023/10/19 04:22:50;;;;;;;8.40;1.25;;;14.80;99.90;;;;;;4982364;28;87880;-72
2023/10/19 04:25:18;;;;;;;9.25;0.80;;;14.80;99.90;;;;;;4981196;28;87520;-74
2023/10/19 04:27:45;;;;;;;5.10;0.85;;;14.90;99.90;;;;;;4981272;28;87387;-75
2023/10/19 04:30:21;;;;;;;9.18;1.30;;;14.90;99.90;;;;;;4982310;28;88970;-72
2023/10/19 04:32:52;;;;;;;8.13;1.20;;;14.80;99.90;;;;;;4979697;28;90512;-73
2023/10/19 04:35:21;;;;;;;9.85;0.90;;;14.80;99.90;;;;;;4980471;28;88682;-72
2023/10/19 04:37:50;;;;;;;6.93;0.85;;;14.80;99.90;;;;;;4979494;28;90863;-71
2023/10/19 04:40:19;;;;;;;7.93;1.27;;;14.80;99.90;;;;;;4979478;28;91775;-71
2023/10/19 04:42:46;;;;;;;7.13;1.75;;;14.80;99.90;;;;;;4980918;28;91181;-71
2023/10/19 04:45:12;;;;;;;4.20;0.70;;;14.80;99.90;;;;;;4965359;28;87779;-72
2023/10/19 04:47:38;;;;;;;10.88;0.93;;;14.80;99.90;;;;;;4975234;28;89936;-71
2023/10/19 04:50:10;;;;;;;5.53;1.10;;;14.80;99.90;;;;;;4965327;28;91153;-71
2023/10/19 04:52:36;;;;;;;5.40;0.80;;;14.90;99.90;;;;;;4965349;28;91591;-72
2023/10/19 04:55:02;;;;;;;6.70;1.10;;;14.80;99.90;;;;;;4983959;28;88233;-70
2023/10/19 04:57:28;;;;;;;9.65;1.52;;;14.90;99.90;;;;;;4983397;28;91526;-76
2023/10/19 04:59:53;;;;;;;8.65;0.88;;;14.90;99.90;;;;;;4984101;28;88702;-71
2023/10/19 05:02:19;;;;;;;6.65;0.88;;;14.90;99.90;;;;;;4983230;28;91240;-72
2023/10/19 05:04:45;;;;;;;8.30;1.25;;;15.00;99.90;;;;;;4966924;28;88080;-74
2023/10/19 05:07:16;;;;;;;9.15;0.90;;;15.00;99.90;;;;;;4984941;28;87661;-74
2023/10/19 05:09:43;;;;;;;6.90;1.00;;;15.00;99.90;;;;;;4984409;28;88546;-70
2023/10/19 05:12:09;;;;;;;8.65;1.25;;;15.00;99.90;;;;;;4983312;28;89994;-71
2023/10/19 05:14:36;;;;;;;10.77;1.63;;;15.00;99.90;;;;;;4964430;28;87923;-70
2023/10/19 05:17:05;;;;;;;7.97;0.73;;;15.00;99.90;;;;;;4981738;28;89345;-73
2023/10/19 05:19:35;;;;;;;7.70;1.48;;;15.10;99.90;;;;;;4972327;28;92211;-71
2023/10/19 05:22:02;;;;;;;11.95;1.08;;;15.10;99.90;;;;;;4983118;28;88384;-71
2023/10/19 05:24:28;;;;;;;8.00;1.23;;;15.10;99.90;;;;;;4981983;28;88913;-75
2023/10/19 05:26:54;;;;;;;8.85;1.27;;;15.10;99.90;;;;;;4982751;28;90339;-75
2023/10/19 05:29:39;;;;;;;9.65;0.82;;;15.10;99.90;;;;;;4965343;28;91963;-72
2023/10/19 05:32:05;;;;;;;10.30;1.10;;;15.10;99.90;;;;;;4981887;28;88216;-71
2023/10/19 05:34:34;;;;;;;5.68;1.13;;;15.10;99.90;;;;;;4965627;28;87630;-71
2023/10/19 05:37:02;;;;;;;9.35;1.20;;;15.10;99.90;;;;;;4984547;28;87977;-71
2023/10/19 05:39:28;;;;;;;6.05;1.08;;;15.10;99.90;;;;;;4982211;28;91493;-73
2023/10/19 05:42:00;;;;;;;6.78;0.93;;;15.10;99.90;;;;;;4983893;28;86710;-75
2023/10/19 05:44:27;;;;;;;12.38;1.05;;;15.10;99.90;;;;;;4981270;28;88342;-74
2023/10/19 05:46:54;;;;;;;5.68;1.05;;;15.10;99.90;;;;;;4981701;28;90220;-71
2023/10/19 05:49:20;;;;;;;6.38;0.90;;;15.10;99.90;;;;;;4982315;28;89160;-74
2023/10/19 05:51:46;;;;;;;6.18;0.93;;;15.10;99.90;;;;;;4983038;28;87834;-70
2023/10/19 05:54:12;;;;;;;7.15;1.08;;;15.10;99.90;;;;;;4985370;28;88087;-75
2023/10/19 05:56:38;;;;;;;5.32;1.30;;;15.10;99.90;;;;;;4964720;28;89802;-72
2023/10/19 05:59:04;;;;;;;3.70;0.52;;;15.10;99.90;;;;;;4982966;28;87906;-71
2023/10/19 06:01:30;;;;;;;11.43;1.10;;;15.10;99.90;;;;;;4982353;28;87672;-73
2023/10/19 06:03:56;;;;;;;6.95;1.02;;;15.10;99.90;;;;;;4982402;28;88801;-71
2023/10/19 06:06:22;;;;;;;6.93;1.02;;;15.20;99.90;;;;;;4982477;28;91067;-72
2023/10/19 06:08:49;;;;;;;7.85;1.05;;;15.20;99.90;;;;;;4980882;28;91787;-73
2023/10/19 06:11:15;;;;;;;5.68;1.02;;;15.10;99.90;;;;;;4980510;28;91506;-72
2023/10/19 06:13:40;;;;;;;5.63;1.13;;;15.20;99.90;;;;;;4981908;28;88749;-72
2023/10/19 06:16:06;;;;;;;12.77;1.42;;;15.20;99.90;;;;;;4982432;28;87418;-70
2023/10/19 06:18:32;;;;;;;8.20;1.10;;;15.20;99.90;;;;;;4981986;28;88684;-75
2023/10/19 06:20:57;;;;;;;6.28;0.70;;;15.20;99.90;;;;;;4965661;28;90541;-75
2023/10/19 06:23:23;;;;;;;11.43;1.00;;;15.20;99.90;;;;;;4982127;28;87799;-75
2023/10/19 06:25:51;;;;;;;6.47;0.80;;;15.20;99.90;;;;;;4981357;28;90798;-73
2023/10/19 06:28:17;;;;;;;6.57;0.95;;;15.20;99.90;;;;;;4982745;28;89108;-74
2023/10/19 06:30:43;;;;;;;8.77;1.25;;;15.20;99.90;;;;;;4981568;28;91059;-73
2023/10/19 06:33:09;;;;;;;7.50;1.23;;;15.30;99.90;;;;;;4965957;28;88287;-72
2023/10/19 06:35:37;;;;;;;7.32;0.90;;;15.30;99.90;;;;;;4983630;28;87487;-70
2023/10/19 06:38:03;;;;;;;8.85;1.10;;;15.30;99.90;;;;;;4966088;28;91361;-74
2023/10/19 06:40:30;;;;;;;8.35;1.08;;;15.20;99.90;;;;;;4980890;28;92563;-71
2023/10/19 06:43:02;;;;;;;11.25;1.30;;;15.30;99.90;;;;;;4980348;28;88091;-72
2023/10/19 06:45:31;;;;;;;6.57;1.42;;;15.30;99.90;;;;;;4982392;28;89499;-71
2023/10/19 06:48:00;;;;;;;9.95;2.35;;;15.30;99.90;;;;;;4984263;28;88647;-73
2023/10/19 06:50:28;;;;;;;8.82;2.20;;;15.20;99.90;;;;;;4982748;28;87842;-71
2023/10/19 06:52:56;;;;;;;11.63;2.28;;;15.20;99.90;;;;;;4984145;28;87666;-74
2023/10/19 06:55:25;;;;;;;8.25;1.58;;;15.20;99.90;;;;;;4988861;28;90542;-73
2023/10/19 06:57:52;;;;;;;3.20;1.20;;;15.20;99.90;;;;;;4985742;28;88359;-73
2023/10/19 07:00:20;;;;;;;7.70;1.08;;;15.30;99.90;;;;;;4982987;28;89804;-74
2023/10/19 07:02:56;;;;;;;10.02;1.60;;;15.30;99.90;;;;;;4986956;28;88474;-72
2023/10/19 07:05:25;;;;;;;4.75;0.82;;;15.30;99.90;;;;;;4990290;28;87760;-74
2023/10/19 07:07:54;;;;;;;5.22;0.85;;;15.30;99.90;;;;;;4965408;28;91411;-72
2023/10/19 07:10:20;;;;;;;10.80;1.70;;;15.30;99.90;;;;;;4990137;28;91192;-71
2023/10/19 07:12:48;;;;;;;8.23;1.40;;;15.30;99.90;;;;;;4991312;28;87607;-71
2023/10/19 07:15:14;;;;;;;10.52;0.95;;;15.40;99.90;;;;;;4976329;28;88675;-72
2023/10/19 07:17:42;;;;;;;10.70;1.50;;;15.40;99.90;;;;;;4989709;28;91245;-73
2023/10/19 07:20:21;;;;;;;8.32;1.30;;;15.40;99.90;;;;;;4988937;28;91344;-74
2023/10/19 07:22:47;;;;;;;10.82;1.58;;;15.50;99.90;;;;;;4985750;28;87469;-71
2023/10/19 07:25:13;;;;;;;5.70;1.13;;;15.50;99.90;;;;;;4976330;28;90172;-73
2023/10/19 07:27:42;;;;;;;8.02;1.10;;;15.50;99.90;;;;;;4971854;28;92390;-73
2023/10/19 07:30:09;;;;;;;7.55;1.58;;;15.50;99.90;;;;;;4992162;28;93411;-73
2023/10/19 07:32:35;;;;;;;6.90;1.30;;;15.50;99.90;;;;;;4990205;28;87543;-74
2023/10/19 07:35:01;;;;;;;9.68;1.40;;;15.50;99.90;;;;;;4993612;28;87560;-72
2023/10/19 07:37:28;;;;;;;9.48;1.67;;;15.50;99.90;;;;;;4980286;28;89567;-71
2023/10/19 07:39:56;;;;;;;11.98;1.23;;;15.50;99.90;;;;;;4985073;28;90224;-72
2023/10/19 07:42:23;;;;;;;5.82;0.98;;;15.50;99.90;;;;;;4996132;28;87181;-73
2023/10/19 07:44:52;;;;;;;10.10;1.65;;;15.50;99.90;;;;;;4979033;28;90152;-71
2023/10/19 07:47:17;;;;;;;7.45;0.93;;;15.60;99.90;;;;;;4994529;28;87506;-72
2023/10/19 07:49:43;;;;;;;7.25;1.17;;;15.60;99.90;;;;;;4993649;28;88096;-75
2023/10/19 07:52:14;;;;;;;10.52;1.20;;;15.60;99.90;;;;;;4976617;28;88090;-72
2023/10/19 07:54:41;;;;;;;9.93;1.10;;;15.70;99.90;;;;;;4994105;28;90796;-73
2023/10/19 07:57:07;;;;;;;8.73;0.98;;;15.70;99.90;;;;;;4994580;28;91498;-73
2023/10/19 07:59:33;;;;;;;8.55;1.70;;;15.80;99.90;;;;;;4993062;28;91379;-71
2023/10/19 08:02:03;;;;;;;6.43;1.20;;;15.80;99.90;;;;;;4976473;28;87441;-72
2023/10/19 08:04:37;;;;;;;9.40;1.92;;;15.80;99.90;;;;;;4978041;28;89421;-72
2023/10/19 08:07:05;;;;;;;14.43;1.90;;;15.90;99.90;;;;;;4995085;28;91313;-73
2023/10/19 08:09:35;;;;;;;9.20;1.00;;;15.90;99.90;;;;;;4998169;28;88917;-72
2023/10/19 08:12:01;;;;;;;9.82;1.30;;;16.00;99.90;;;;;;4996614;28;87175;-72
2023/10/19 08:14:27;;;;;;;11.30;1.30;;;16.10;99.90;;;;;;4993679;28;89444;-72
2023/10/19 08:16:53;;;;;;;5.57;1.08;;;16.20;99.90;;;;;;4994159;28;89328;-72
2023/10/19 08:19:19;;;;;;;6.35;1.10;;;16.20;99.90;;;;;;4995669;28;92065;-72
2023/10/19 08:21:46;;;;;;;14.60;1.60;;;16.30;99.90;;;;;;4981433;28;87273;-72
2023/10/19 08:24:17;;;;;;;6.82;1.52;;;16.40;99.90;;;;;;4977311;28;90140;-73
2023/10/19 08:26:45;;;;;;;13.40;1.10;;;16.40;99.90;;;;;;4974931;28;90014;-75
2023/10/19 08:29:14;;;;;;;9.25;1.17;;;16.40;99.90;;;;;;4993410;28;91072;-73
2023/10/19 08:31:46;;;;;;;9.20;1.75;;;16.50;99.90;;;;;;4996836;28;87047;-72
2023/10/19 08:34:12;;;;;;;10.68;1.45;;;16.50;99.90;;;;;;4995269;28;94685;-72
2023/10/19 08:36:38;;;;;;;14.23;2.03;;;16.60;99.90;;;;;;4981494;28;91796;-71
2023/10/19 08:39:08;;;;;;;11.48;1.55;;;16.60;99.90;;;;;;4999965;28;88001;-71
2023/10/19 08:41:36;;;;;;;10.15;1.77;;;16.60;99.90;;;;;;5000558;28;87976;-72
2023/10/19 08:44:11;;;;;;;13.15;3.38;;;16.70;99.90;;;;;;5001946;28;87105;-72
2023/10/19 08:46:45;;;;;;;9.77;1.38;;;16.80;99.90;;;;;;5002392;28;88123;-72
2023/10/19 08:49:12;;;;;;;9.32;1.70;;;16.90;99.90;;;;;;4998715;28;87068;-76
2023/10/19 08:51:47;;;;;;;9.40;1.45;;;16.90;99.90;;;;;;4980063;28;89512;-73
2023/10/19 08:54:14;;;;;;;15.82;2.90;;;17.00;99.90;;;;;;4982347;28;88524;-72
2023/10/19 08:56:41;;;;;;;9.52;1.75;;;17.00;99.90;;;;;;4983978;28;88558;-73
2023/10/19 08:59:08;;;;;;;15.75;1.52;;;17.20;99.90;;;;;;4983640;28;87855;-74
2023/10/19 09:01:35;;;;;;;8.10;1.30;;;17.20;99.90;;;;;;4984363;28;87519;-73
2023/10/19 09:04:01;;;;;;;11.35;1.40;;;17.30;99.90;;;;;;4984340;28;87903;-73
2023/10/19 09:06:30;;;;;;;9.30;1.55;;;17.30;99.90;;;;;;4966878;28;92281;-73
2023/10/19 09:08:57;;;;;;;7.47;1.55;;;17.30;99.90;;;;;;4965884;28;95834;-74
2023/10/19 09:11:24;;;;;;;9.25;2.25;;;17.40;99.90;;;;;;4982212;28;87961;-73
2023/10/19 09:13:52;;;;;;;9.75;1.50;;;17.40;99.90;;;;;;4980633;28;88236;-73
2023/10/19 09:16:22;;;;;;;11.48;1.40;;;17.40;99.90;;;;;;4983056;28;88598;-73
2023/10/19 09:18:49;;;;;;;8.75;1.42;;;17.50;99.90;;;;;;4964198;28;91170;-74
2023/10/19 09:21:24;;;;;;;10.27;1.40;;;17.50;99.90;;;;;;4966807;28;87934;-74
2023/10/19 09:23:54;;;;;;;11.05;1.40;;;17.60;99.90;;;;;;4982707;28;90746;-72
2023/10/19 09:26:24;;;;;;;7.55;1.20;;;17.60;99.90;;;;;;4982370;28;88118;-73
2023/10/19 09:28:51;;;;;;;10.18;1.42;;;17.70;99.90;;;;;;4983093;28;88131;-73
2023/10/19 09:31:18;;;;;;;12.98;1.92;;;17.70;99.90;;;;;;4980640;28;96202;-73
2023/10/19 09:33:46;;;;;;;11.98;1.73;;;17.70;99.90;;;;;;4983606;28;88184;-73
2023/10/19 09:36:12;;;;;;;12.18;1.35;;;17.70;99.90;;;;;;4982425;28;91783;-74
2023/10/19 09:38:50;;;;;;;11.52;1.60;;;17.70;99.90;;;;;;4966151;28;91538;-74
2023/10/19 09:41:21;;;;;;;10.55;1.77;;;17.80;99.90;;;;;;4983527;28;88109;-73
2023/10/19 09:43:50;;;;;;;8.23;1.75;;;17.80;99.90;;;;;;4982362;28;87642;-74
2023/10/19 09:46:28;;;;;;;10.07;1.48;;;17.80;99.90;;;;;;4963913;28;91916;-73
2023/10/19 09:48:54;;;;;;;13.23;2.35;;;17.80;99.90;;;;;;4964679;28;89714;-73
2023/10/19 09:51:21;;;;;;;12.40;1.83;;;17.90;99.90;;;;;;4982961;28;88986;-74
2023/10/19 09:54:14;;;;;;;7.82;1.40;;;17.90;99.90;;;;;;4981187;28;90372;-73
2023/10/19 09:56:46;;;;;;;10.60;2.07;;;18.00;99.90;;;;;;4981483;28;89613;-73
2023/10/19 09:59:36;;;;;;;13.07;2.03;;;18.00;99.90;;;;;;4980919;28;90296;-73
2023/10/19 10:02:12;;;;;;;11.20;1.95;;;18.10;99.90;;;;;;4982627;28;91123;-73
2023/10/19 10:04:45;;;;;;;11.23;1.52;;;18.20;99.90;;;;;;4983414;28;87850;-74
2023/10/19 10:07:10;;;;;;;13.20;1.67;;;18.20;99.90;;;;;;4982850;28;89152;-74
2023/10/19 10:09:49;;;;;;;7.50;2.13;;;18.20;99.90;;;;;;4982996;28;87850;-73
2023/10/19 10:12:28;;;;;;;11.32;1.63;;;18.30;99.90;;;;;;4965493;28;88583;-73
2023/10/19 10:15:07;;;;;;;10.48;1.20;;;18.40;99.90;;;;;;4983597;28;91417;-73
2023/10/19 10:17:39;;;;;;;7.53;1.55;;;18.40;99.90;;;;;;4982208;28;87558;-72
2023/10/19 10:20:13;;;;;;;12.82;1.73;;;18.40;99.90;;;;;;4962589;28;91487;-73
2023/10/19 10:22:45;;;;;;;12.32;1.63;;;18.50;99.90;;;;;;4979550;28;89283;-74
2023/10/19 10:25:28;;;;;;;11.13;1.25;;;18.50;99.90;;;;;;4980384;28;90681;-73
2023/10/19 10:27:55;;;;;;;11.15;1.65;;;18.50;99.90;;;;;;4978375;28;91158;-73
2023/10/19 10:30:21;;;;;;;8.73;1.70;;;18.50;99.90;;;;;;4981751;28;89862;-73
2023/10/19 10:32:52;;;;;;;16.75;2.60;;;18.60;99.90;;;;;;4981083;28;87672;-73
2023/10/19 10:35:36;;;;;;;10.90;1.50;;;18.60;99.90;;;;;;4981296;28;90854;-74
2023/10/19 10:38:07;;;;;;;17.17;3.70;;;18.70;99.90;;;;;;4963529;28;91759;-73
2023/10/19 10:40:50;;;;;;;11.90;1.75;;;18.80;99.90;;;;;;4982640;28;89955;-74
2023/10/19 10:43:19;;;;;;;10.27;1.67;;;19.00;99.90;;;;;;4980848;28;88035;-74
2023/10/19 10:45:44;;;;;;;12.88;1.40;;;19.10;99.90;;;;;;4963275;28;90314;-74
2023/10/19 10:48:18;;;;;;;10.32;1.80;;;19.20;99.90;;;;;;4964255;28;91703;-75
2023/10/19 10:50:46;;;;;;;13.40;2.15;;;19.40;99.90;;;;;;4980157;28;92813;-75
2023/10/19 10:53:13;;;;;;;10.82;1.40;;;19.50;99.90;;;;;;4983116;28;87715;-75
2023/10/19 10:55:39;;;;;;;11.40;1.58;;;19.60;99.90;;;;;;4977861;28;91423;-75
2023/10/19 10:58:05;;;;;;;7.70;1.45;;;19.60;99.90;;;;;;4983399;28;88399;-75
2023/10/19 11:00:34;;;;;;;10.38;1.67;;;19.60;99.90;;;;;;4978151;28;91463;-75
2023/10/19 11:03:04;;;;;;;17.00;1.88;;;19.70;99.90;;;;;;4982109;28;88305;-74
2023/10/19 11:05:35;;;;;;;9.27;2.10;;;19.70;99.90;;;;;;4978660;28;88196;-74
2023/10/19 11:08:06;;;;;;;7.70;1.42;;;19.70;99.90;;;;;;4981864;28;88192;-75
2023/10/19 11:10:33;;;;;;;10.00;1.83;;;19.80;99.90;;;;;;4963710;28;89488;-75
2023/10/19 11:13:07;;;;;;;12.73;1.85;;;19.90;99.90;;;;;;4979171;28;89182;-74
2023/10/19 11:15:37;;;;;;;9.20;1.75;;;20.00;99.90;;;;;;4981730;28;87426;-74
2023/10/19 11:18:03;;;;;;;12.88;2.20;;;20.10;99.90;;;;;;4982475;28;88691;-75
2023/10/19 11:20:31;;;;;;;11.77;1.35;;;20.20;99.90;;;;;;4980123;28;90731;-75
2023/10/19 11:23:00;;;;;;;13.52;1.40;;;20.30;99.90;;;;;;4980475;28;87352;-75
2023/10/19 11:25:31;;;;;;;8.80;1.77;;;20.40;99.90;;;;;;4979482;28;90911;-74
2023/10/19 11:28:04;;;;;;;7.90;1.30;;;20.50;99.90;;;;;;4978826;28;89492;-74
2023/10/19 11:30:33;;;;;;;6.22;1.48;;;20.50;99.90;;;;;;4983360;28;91265;-74
2023/10/19 11:33:08;;;;;;;12.98;2.05;;;20.40;99.90;;;;;;4986757;28;87657;-74
2023/10/19 11:35:34;;;;;;;12.93;1.80;;;20.30;99.90;;;;;;4962957;28;88369;-74
2023/10/19 11:38:02;;;;;;;12.40;2.15;;;20.30;99.90;;;;;;4963584;28;92366;-74
2023/10/19 11:40:28;;;;;;;7.47;1.15;;;20.10;99.90;;;;;;4979129;28;91784;-75
2023/10/19 11:42:58;;;;;;;11.35;1.63;;;20.00;99.90;;;;;;4979758;28;87474;-73
2023/10/19 11:45:24;;;;;;;10.02;1.42;;;19.90;99.90;;;;;;4981742;28;88166;-73
2023/10/19 11:47:50;;;;;;;7.75;1.50;;;19.70;99.90;;;;;;4963265;28;91141;-76
2023/10/19 11:50:18;;;;;;;6.97;1.42;;;19.60;99.90;;;;;;4978457;28;91509;-73
2023/10/19 11:52:48;;;;;;;9.90;1.38;;;19.40;99.90;;;;;;4981741;28;87987;-74
2023/10/19 11:55:14;;;;;;;9.02;1.42;;;19.30;99.90;;;;;;4979462;28;90212;-73
2023/10/19 11:57:43;;;;;;;5.78;1.10;;;19.10;99.90;;;;;;4961558;28;91533;-73
2023/10/19 12:00:21;;;;;;;6.03;1.05;;;19.00;99.90;;;;;;4981310;28;88167;-73
2023/10/19 12:02:47;;;;;;;6.20;2.28;;;18.90;99.90;;;;;;4981785;28;89731;-73
2023/10/19 12:05:13;;;;;;;8.43;1.27;;;18.70;99.90;;;;;;4979931;28;90776;-72
2023/10/19 12:07:39;;;;;;;6.78;0.98;;;18.70;99.90;;;;;;4981768;28;88292;-73
2023/10/19 12:10:09;;;;;;;5.40;1.27;;;18.60;99.90;;;;;;4963485;28;91234;-73
2023/10/19 12:12:39;;;;;;;4.97;0.77;;;18.60;99.90;;;;;;4978149;28;87603;-74
2023/10/19 12:15:06;;;;;;;9.18;1.40;;;18.60;99.90;;;;;;4979791;28;87842;-73
2023/10/19 12:17:32;;;;;;;6.72;1.02;;;18.60;99.90;;;;;;4962021;28;91763;-74
2023/10/19 12:20:01;;;;;;;10.27;1.38;;;18.60;99.90;;;;;;4978527;28;90779;-74
2023/10/19 12:22:32;;;;;;;7.25;0.88;;;18.60;99.90;;;;;;4981109;28;87831;-74
2023/10/19 12:24:59;;;;;;;4.43;0.85;;;18.60;99.90;;;;;;4981108;28;88046;-73
2023/10/19 12:27:25;;;;;;;5.15;1.05;;;18.60;99.90;;;;;;4978949;28;92636;-74
2023/10/19 12:29:52;;;;;;;2.95;0.90;;;18.60;99.90;;;;;;4979036;28;92097;-74
2023/10/19 12:32:18;;;;;;;9.48;1.33;;;18.60;99.90;;;;;;4980090;28;88291;-74
2023/10/19 12:34:44;;;;;;;13.85;1.45;;;18.70;99.90;;;;;;4963190;28;89894;-75
2023/10/19 12:37:12;;;;;;;33.20;3.28;;;18.70;99.90;;;;;;4977616;28;91683;-74
2023/10/19 12:39:47;;;;;;;13.45;2.17;;;18.70;99.90;;;;;;4961994;28;91253;-75
2023/10/19 12:42:14;;;;;;;8.75;1.13;;;18.70;99.90;;;;;;4978900;28;87902;-75
2023/10/19 12:44:41;;;;;;;6.97;1.20;;;18.60;99.90;;;;;;4962711;28;90497;-75
2023/10/19 12:47:12;;;;;;;9.00;1.50;;;18.50;99.90;;;;;;4978066;28;88299;-74
2023/10/19 12:49:40;;;;;;;9.52;2.03;;;18.40;99.90;;;;;;4980046;28;88444;-76
2023/10/19 12:52:10;;;;;;;13.65;2.50;;;18.30;99.90;;;;;;4962391;28;88731;-75
2023/10/19 12:54:36;;;;;;;6.30;1.40;;;18.20;99.90;;;;;;4980689;28;87854;-75
2023/10/19 12:57:07;;;;;;;5.93;1.63;;;18.30;99.90;;;;;;4961839;28;91801;-75
2023/10/19 12:59:37;;;;;;;11.27;2.10;;;18.20;99.90;;;;;;4962356;28;90010;-75
2023/10/19 13:02:04;;;;;;;10.18;1.85;;;18.20;99.90;;;;;;4981867;28;87776;-75
2023/10/19 13:04:31;;;;;;;8.95;1.10;;;18.20;99.90;;;;;;4962608;28;90205;-75
2023/10/19 13:06:57;;;;;;;5.63;1.33;;;18.20;99.90;;;;;;4963573;28;91817;-75
2023/10/19 13:09:36;;;;;;;5.05;1.23;;;18.20;99.90;;;;;;4984400;28;91223;-75
2023/10/19 13:12:01;;;;;;;6.05;1.27;;;18.20;99.90;;;;;;4983990;28;87750;-75